Time;durP1;ratioP1;P1;durP2;ratioP2;P2;SDS_P1;SDS_P2;PMS_P1;PMS_P2;Temp;Humidity;BMP_temperature;BMP_pressure;BME280_temperature;BME280_humidity;BME280_pressure;Samples;Min_cycle;Max_cycle;Signal;HPM_P1;HPM_P2
2021/12/20 00:01:48;;;;;;;356.20;177.18;;;;;;;7.25;100.00;99119.88;4847236;29;20064;-65
2021/12/20 00:04:39;;;;;;;359.88;180.10;;;;;;;7.06;100.00;99117.47;4871013;29;20069;-64
2021/12/20 00:07:20;;;;;;;345.45;173.43;;;;;;;6.92;100.00;99117.59;4875321;29;20071;-64
2021/12/20 00:10:11;;;;;;;352.60;176.55;;;;;;;6.87;100.00;99122.75;4866626;29;20168;-66
2021/12/20 00:13:02;;;;;;;350.50;177.05;;;;;;;7.09;100.00;99113.19;4856750;29;20121;-64
2021/12/20 00:15:45;;;;;;;349.92;176.15;;;;;;;6.99;100.00;99138.88;4844966;29;20630;-65
2021/12/20 00:18:33;;;;;;;348.02;174.30;;;;;;;6.85;100.00;99142.41;4874044;29;20064;-65
2021/12/20 00:21:17;;;;;;;354.63;176.80;;;;;;;6.98;100.00;99152.53;4874660;29;20080;-65
2021/12/20 00:24:13;;;;;;;356.33;178.70;;;;;;;7.02;100.00;99149.97;4875228;29;20529;-65
2021/12/20 00:26:48;;;;;;;364.63;182.52;;;;;;;7.15;100.00;99155.81;4872676;29;20117;-65
2021/12/20 00:29:37;;;;;;;362.80;181.80;;;;;;;7.23;100.00;99149.75;4863390;29;20045;-65
2021/12/20 00:32:27;;;;;;;352.33;180.00;;;;;;;7.04;100.00;99162.72;4862711;29;20053;-65
2021/12/20 00:35:18;;;;;;;366.50;183.32;;;;;;;6.88;100.00;99167.13;4853085;29;20057;-65
2021/12/20 00:41:05;;;;;;;360.58;183.35;;;;;;;6.95;100.00;99163.66;4855385;29;20521;-65
2021/12/20 00:43:41;;;;;;;359.55;180.57;;;;;;;7.00;100.00;99164.47;4855945;29;20065;-65
2021/12/20 00:46:34;;;;;;;361.65;182.75;;;;;;;7.23;100.00;99171.97;4855681;29;20057;-64
2021/12/20 00:49:09;;;;;;;366.42;185.88;;;;;;;7.27;100.00;99176.19;4851790;29;20073;-65
2021/12/20 00:52:03;;;;;;;355.95;184.77;;;;;;;7.31;100.00;99177.88;4856399;29;20058;-65
2021/12/20 00:54:38;;;;;;;367.08;183.70;;;;;;;7.09;100.00;99182.34;4856203;29;20053;-65
2021/12/20 00:57:33;;;;;;;368.70;182.73;;;;;;;7.15;100.00;99186.56;4855890;29;20053;-65
2021/12/20 01:00:10;;;;;;;349.80;184.75;;;;;;;7.22;100.00;99186.50;4860759;29;20046;-67
2021/12/20 01:02:59;;;;;;;377.50;183.80;;;;;;;7.02;100.00;99187.53;4838413;29;20122;-66
2021/12/20 01:05:42;;;;;;;367.17;180.95;;;;;;;7.04;100.00;99183.22;4837011;29;20144;-65
2021/12/20 01:08:35;;;;;;;350.48;174.07;;;;;;;6.90;100.00;99181.63;4837233;29;20054;-64
2021/12/20 01:11:22;;;;;;;340.08;179.95;;;;;;;6.78;100.00;99188.56;4850839;29;20121;-65
2021/12/20 01:14:11;;;;;;;362.83;180.68;;;;;;;6.80;100.00;99194.50;4856833;29;20063;-65
2021/12/20 01:16:55;;;;;;;352.02;181.82;;;;;;;6.81;100.00;99193.63;4836084;29;20114;-66
2021/12/20 01:19:44;;;;;;;349.92;180.63;;;;;;;6.96;100.00;99192.69;4836706;29;20073;-65
2021/12/20 01:22:25;;;;;;;351.73;182.23;;;;;;;7.22;100.00;99193.31;4844575;29;20136;-64
2021/12/20 01:25:15;;;;;;;356.48;183.35;;;;;;;6.93;100.00;99192.72;4854682;29;20045;-65
2021/12/20 01:28:02;;;;;;;359.27;184.52;;;;;;;6.77;100.00;99205.63;4854942;29;20064;-65
2021/12/20 01:30:51;;;;;;;361.75;186.27;;;;;;;6.67;100.00;99206.53;4854550;29;20586;-65
2021/12/20 01:33:33;;;;;;;367.95;186.35;;;;;;;6.57;100.00;99204.03;4855179;29;20066;-65
2021/12/20 01:36:22;;;;;;;361.20;184.93;;;;;;;6.62;100.00;99204.88;4853550;29;20061;-65
2021/12/20 01:39:04;;;;;;;373.42;190.38;;;;;;;6.66;100.00;99206.53;4855299;29;20057;-65
2021/12/20 01:42:03;;;;;;;368.55;189.63;;;;;;;6.49;100.00;99209.19;4854841;29;20144;-65
2021/12/20 01:44:38;;;;;;;381.08;189.02;;;;;;;6.45;100.00;99216.03;4838311;29;20117;-65
2021/12/20 01:47:32;;;;;;;398.90;201.27;;;;;;;6.56;100.00;99215.97;4854490;29;20550;-66
2021/12/20 01:50:40;;;;;;;393.95;202.77;;;;;;;6.45;100.00;99231.41;4860947;29;20057;-64
2021/12/20 01:53:36;;;;;;;380.50;191.60;;;;;;;6.42;100.00;99228.84;4852835;29;20160;-64
2021/12/20 01:56:12;;;;;;;385.02;197.55;;;;;;;6.63;100.00;99229.56;4852628;29;20553;-65
2021/12/20 01:59:05;;;;;;;389.70;204.43;;;;;;;6.51;100.00;99228.81;4853516;29;20525;-65
2021/12/20 02:01:53;;;;;;;394.77;202.38;;;;;;;6.72;100.00;99237.22;4839743;29;20049;-65
2021/12/20 02:04:50;;;;;;;411.50;207.73;;;;;;;6.86;100.00;99231.16;4854571;29;20061;-65
2021/12/20 02:07:36;;;;;;;414.30;205.25;;;;;;;6.93;100.00;99244.78;4849965;29;20129;-65
2021/12/20 02:10:30;;;;;;;389.13;200.57;;;;;;;6.93;100.00;99251.63;4855084;29;20091;-64
2021/12/20 02:13:06;;;;;;;387.77;199.73;;;;;;;6.97;100.00;99254.13;4860649;29;20052;-65
2021/12/20 02:15:57;;;;;;;397.67;195.23;;;;;;;7.03;100.00;99243.84;4872022;29;20053;-65
2021/12/20 02:18:48;;;;;;;391.08;197.45;;;;;;;6.90;100.00;99250.78;4870402;29;20165;-65
2021/12/20 02:21:46;;;;;;;379.75;196.02;;;;;;;6.86;100.00;99248.25;4852801;29;20053;-64
2021/12/20 02:24:22;;;;;;;379.30;194.70;;;;;;;6.73;100.00;99247.44;4867579;29;20067;-65
2021/12/20 02:27:20;;;;;;;414.77;204.95;;;;;;;6.70;100.00;99250.03;4851618;29;20132;-65
2021/12/20 02:30:10;;;;;;;401.05;211.52;;;;;;;7.12;100.00;99248.06;4853753;29;20061;-65
2021/12/20 02:39:08;;;;;;;411.60;212.45;;;;;;;7.18;100.00;99250.59;4868821;29;20053;-65
2021/12/20 02:41:51;;;;;;;435.05;227.55;;;;;;;7.37;100.00;99251.28;4882121;29;20058;-65
2021/12/20 02:45:06;;;;;;;408.40;216.25;;;;;;;7.48;100.00;99249.50;4874130;29;20064;-65
2021/12/20 02:47:54;;;;;;;429.08;222.50;;;;;;;7.37;100.00;99249.56;4844767;29;20054;-64
2021/12/20 02:50:37;;;;;;;415.02;221.70;;;;;;;7.42;100.00;99252.97;4835693;29;20061;-63
2021/12/20 02:53:24;;;;;;;434.00;225.50;;;;;;;7.47;100.00;99255.47;4835633;29;20130;-63
2021/12/20 02:56:07;;;;;;;439.10;230.38;;;;;;;7.61;100.00;99254.50;4836536;29;20072;-63
2021/12/20 02:58:57;;;;;;;454.23;247.30;;;;;;;7.70;100.00;99253.56;4817625;29;20054;-63
2021/12/20 03:01:56;;;;;;;444.02;247.98;;;;;;;7.80;100.00;99244.91;4821434;29;20058;-63
2021/12/20 03:04:39;;;;;;;464.83;254.20;;;;;;;7.79;100.00;99258.59;4837458;29;20148;-63
2021/12/20 03:07:31;;;;;;;444.83;245.07;;;;;;;7.85;100.00;99255.97;4843246;29;20136;-63
2021/12/20 03:10:14;;;;;;;435.48;237.75;;;;;;;8.04;100.00;99262.63;4851840;29;20440;-63
2021/12/20 03:13:05;;;;;;;441.33;240.63;;;;;;;8.22;100.00;99264.13;4835796;29;20153;-63
2021/12/20 03:15:47;;;;;;;443.42;235.85;;;;;;;8.40;100.00;99265.66;4836392;29;20064;-63
2021/12/20 03:18:35;;;;;;;446.45;228.43;;;;;;;8.79;100.00;99264.31;4834916;29;20110;-63
2021/12/20 03:21:17;;;;;;;436.92;232.27;;;;;;;9.29;100.00;99266.16;4835635;29;20435;-64
2021/12/20 03:24:07;;;;;;;427.92;228.23;;;;;;;9.65;100.00;99264.72;4835613;29;20050;-64
2021/12/20 03:26:48;;;;;;;433.10;232.40;;;;;;;10.06;100.00;99265.69;4835574;29;20065;-63
2021/12/20 03:29:37;;;;;;;436.15;230.52;;;;;;;10.47;100.00;99254.63;4838268;29;20066;-63
2021/12/20 03:32:18;;;;;;;432.02;238.05;;;;;;;10.92;100.00;99263.13;4834614;29;20049;-64
2021/12/20 03:35:09;;;;;;;432.58;233.85;;;;;;;11.21;100.00;99276.19;4830314;29;20042;-64
2021/12/20 03:37:57;;;;;;;410.27;229.93;;;;;;;11.72;100.00;99283.59;4844033;29;20083;-64
2021/12/20 03:40:52;;;;;;;418.35;230.80;;;;;;;12.15;100.00;99289.34;4853402;29;20512;-64
2021/12/20 03:43:40;;;;;;;403.15;229.60;;;;;;;12.62;100.00;99303.56;4866949;29;20064;-64
2021/12/20 03:46:30;;;;;;;404.98;235.32;;;;;;;12.90;100.00;99298.44;4862071;29;20425;-64
2021/12/20 03:49:13;;;;;;;410.67;225.90;;;;;;;13.37;100.00;99303.94;4842354;29;20057;-65
2021/12/20 03:52:04;;;;;;;405.85;230.10;;;;;;;13.59;100.00;99298.94;4859258;29;20461;-65
2021/12/20 03:54:45;;;;;;;427.17;233.93;;;;;;;13.70;100.00;99304.63;4856287;29;20053;-64
2021/12/20 03:57:35;;;;;;;396.70;228.85;;;;;;;14.40;100.00;99322.97;4861369;29;20087;-64
2021/12/20 04:00:17;;;;;;;400.08;228.98;;;;;;;14.49;100.00;99330.44;4864204;29;20059;-64
2021/12/20 04:03:10;;;;;;;404.75;224.73;;;;;;;14.98;99.94;99326.06;4857124;29;20363;-64
2021/12/20 04:05:53;;;;;;;397.88;229.57;;;;;;;15.10;99.40;99346.34;4859980;29;20061;-64
2021/12/20 04:08:43;;;;;;;409.60;225.65;;;;;;;15.22;100.00;99343.28;4856165;29;20518;-65
2021/12/20 04:11:25;;;;;;;413.20;223.23;;;;;;;15.36;97.07;99347.94;4858861;29;20049;-63
2021/12/20 04:14:14;;;;;;;391.42;217.70;;;;;;;15.63;95.59;99349.50;4854910;29;20053;-63
2021/12/20 04:17:03;;;;;;;413.05;209.38;;;;;;;15.61;91.12;99352.16;4859304;29;20049;-63
2021/12/20 04:19:51;;;;;;;411.50;211.27;;;;;;;15.74;90.84;99343.88;4862083;29;20041;-63
2021/12/20 04:22:33;;;;;;;368.17;203.30;;;;;;;16.10;87.86;99347.56;4865987;29;20054;-63
2021/12/20 04:25:22;;;;;;;355.80;197.50;;;;;;;16.54;80.81;99353.47;4861330;29;20755;-63
2021/12/20 04:28:05;;;;;;;360.35;203.57;;;;;;;16.64;85.76;99360.00;4850499;29;20378;-63
2021/12/20 04:30:54;;;;;;;350.02;195.52;;;;;;;16.77;81.14;99362.91;4860832;29;20061;-63
2021/12/20 04:33:36;;;;;;;378.63;195.27;;;;;;;16.99;76.57;99375.81;4864162;29;20049;-63
2021/12/20 04:36:26;;;;;;;344.98;188.48;;;;;;;16.93;80.23;99376.06;4862216;29;20133;-64
2021/12/20 04:39:19;;;;;;;332.40;172.07;;;;;;;16.93;79.86;99370.88;4861886;29;20084;-63
2021/12/20 04:42:15;;;;;;;334.07;181.80;;;;;;;16.78;78.23;99375.84;4858726;29;20520;-62
2021/12/20 04:44:49;;;;;;;326.15;171.57;;;;;;;16.87;76.45;99387.59;4858301;29;20113;-63
2021/12/20 04:47:39;;;;;;;335.60;167.60;;;;;;;16.96;76.06;99388.97;4858669;29;20148;-63
2021/12/20 04:50:21;;;;;;;266.05;145.00;;;;;;;17.13;70.85;99379.47;4855343;29;20129;-63
2021/12/20 04:53:10;;;;;;;262.55;139.80;;;;;;;17.23;65.59;99379.06;4856047;29;20141;-63
2021/12/20 04:55:52;;;;;;;273.90;142.90;;;;;;;17.06;68.68;99388.50;4862404;29;20564;-63
2021/12/20 04:58:40;;;;;;;281.50;136.98;;;;;;;17.06;67.14;99380.69;4856153;29;20536;-64
2021/12/20 05:01:22;;;;;;;261.58;135.75;;;;;;;16.88;61.65;99378.91;4858373;29;20089;-62
2021/12/20 05:04:12;;;;;;;246.07;131.18;;;;;;;16.90;65.13;99369.25;4847196;29;20132;-64
2021/12/20 05:06:54;;;;;;;223.90;117.65;;;;;;;17.16;62.34;99379.31;4860549;29;20073;-64
2021/12/20 05:09:43;;;;;;;223.38;123.25;;;;;;;17.18;60.18;99366.25;4862995;29;20165;-63
2021/12/20 05:12:25;;;;;;;241.40;128.52;;;;;;;17.16;55.91;99381.13;4856463;29;20614;-63
2021/12/20 05:15:13;;;;;;;214.30;113.15;;;;;;;17.51;59.67;99375.09;4864018;29;20052;-64
2021/12/20 05:17:55;;;;;;;190.50;105.18;;;;;;;17.55;58.42;99373.22;4857762;29;20060;-64
2021/12/20 05:20:45;;;;;;;189.07;101.30;;;;;;;17.84;60.68;99369.22;4855043;29;20144;-64
2021/12/20 05:23:26;;;;;;;180.25;91.00;;;;;;;17.65;54.97;99379.69;4859179;29;20059;-64
2021/12/20 05:26:14;;;;;;;179.38;90.43;;;;;;;17.93;58.70;99359.22;4861317;29;20037;-67
2021/12/20 05:28:56;;;;;;;169.63;91.18;;;;;;;17.94;56.13;99357.44;4849966;29;20058;-64
2021/12/20 05:31:46;;;;;;;184.88;90.13;;;;;;;17.97;54.43;99362.50;4865247;29;20404;-64
2021/12/20 05:34:27;;;;;;;168.23;89.28;;;;;;;17.85;52.45;99353.53;4861089;29;20061;-64
2021/12/20 05:37:16;;;;;;;178.98;87.40;;;;;;;18.34;55.37;99344.09;4843700;29;20045;-64
2021/12/20 05:40:14;;;;;;;151.70;80.38;;;;;;;18.11;49.11;99352.25;4861154;29;20050;-64
2021/12/20 05:43:03;;;;;;;161.30;79.30;;;;;;;18.05;51.93;99342.09;4860732;29;20052;-68
2021/12/20 05:45:51;;;;;;;164.07;84.40;;;;;;;18.03;49.87;99345.72;4863298;29;20049;-66
2021/12/20 05:48:33;;;;;;;161.45;81.78;;;;;;;18.41;54.82;99339.41;4864366;29;20057;-65
2021/12/20 05:51:21;;;;;;;182.48;89.70;;;;;;;18.48;52.00;99338.16;4869617;29;20481;-66
2021/12/20 05:54:03;;;;;;;169.10;91.05;;;;;;;18.23;53.39;99337.72;4853373;29;20059;-63
2021/12/20 05:56:52;;;;;;;194.85;103.32;;;;;;;18.20;49.36;99337.88;4854110;29;20122;-64
2021/12/20 05:59:34;;;;;;;209.63;109.03;;;;;;;18.34;53.50;99340.66;4861235;29;20452;-63
2021/12/20 06:02:24;;;;;;;217.55;115.40;;;;;;;18.28;54.04;99328.75;4857448;29;20465;-63
2021/12/20 06:05:06;;;;;;;219.20;120.40;;;;;;;18.36;54.01;99323.97;4870909;29;20543;-62
2021/12/20 06:07:57;;;;;;;189.73;102.47;;;;;;;18.50;52.33;99325.91;4858219;29;20136;-63
2021/12/20 06:10:39;;;;;;;140.45;71.93;;;;;;;18.53;49.24;99324.88;4869662;29;20076;-64
2021/12/20 06:13:27;;;;;;;131.98;62.65;;;;;;;18.52;47.46;99318.81;4854233;29;20349;-62
2021/12/20 06:16:09;;;;;;;133.50;63.30;;;;;;;18.70;47.82;99320.50;4853963;29;20053;-64
2021/12/20 06:18:57;;;;;;;143.50;68.10;;;;;;;18.64;46.03;99323.44;4853918;29;20056;-63
2021/12/20 06:21:39;;;;;;;121.72;63.40;;;;;;;18.59;47.63;99320.22;4854546;29;20152;-63
2021/12/20 06:24:29;;;;;;;123.47;53.70;;;;;;;18.83;48.11;99306.81;4858890;29;20053;-64
2021/12/20 06:27:11;;;;;;;101.55;48.92;;;;;;;18.72;47.24;99300.38;4860754;29;20053;-66
2021/12/20 06:30:00;;;;;;;90.65;45.60;;;;;;;18.45;44.29;99309.59;4866464;29;20069;-63
2021/12/20 06:32:44;;;;;;;93.25;45.58;;;;;;;18.72;45.29;99303.00;4869244;29;20057;-63
2021/12/20 06:35:47;;;;;;;98.28;44.28;;;;;;;18.82;45.08;99294.66;4859210;29;20058;-63
2021/12/20 06:38:42;;;;;;;87.30;42.30;;;;;;;18.65;46.63;99285.13;4852629;29;20064;-62
2021/12/20 06:41:24;;;;;;;98.47;49.53;;;;;;;19.08;46.79;99287.09;4861404;29;20500;-63
2021/12/20 06:44:12;;;;;;;98.20;47.38;;;;;;;18.91;45.13;99289.81;4849553;29;20060;-62
2021/12/20 06:46:54;;;;;;;101.53;48.40;;;;;;;19.12;48.09;99277.31;4862633;29;20044;-63
2021/12/20 06:49:43;;;;;;;104.05;51.65;;;;;;;19.00;46.43;99278.81;4859526;29;20128;-63
2021/12/20 06:52:25;;;;;;;97.75;44.95;;;;;;;18.70;45.90;99277.88;4854381;29;20054;-63
2021/12/20 06:55:13;;;;;;;98.53;45.15;;;;;;;18.61;44.81;99279.22;4855259;29;20050;-62
2021/12/20 06:58:02;;;;;;;89.07;41.92;;;;;;;18.76;45.28;99268.91;4856033;29;20052;-62
2021/12/20 07:00:44;;;;;;;80.80;40.88;;;;;;;18.58;44.88;99266.34;4863492;29;20068;-64
2021/12/20 07:03:33;;;;;;;106.22;43.72;;;;;;;18.67;45.43;99265.00;4864533;29;20072;-63
2021/12/20 07:06:15;;;;;;;87.30;42.20;;;;;;;18.58;46.27;99253.28;4867692;29;20053;-63
2021/12/20 07:09:04;;;;;;;101.28;44.40;;;;;;;18.67;44.70;99250.19;4857391;29;20486;-64
2021/12/20 07:11:53;;;;;;;95.78;46.28;;;;;;;18.96;46.63;99235.53;4862323;29;20060;-64
2021/12/20 07:14:35;;;;;;;104.68;48.38;;;;;;;18.76;45.64;99227.94;4859148;29;20121;-64
2021/12/20 07:17:30;;;;;;;93.85;46.90;;;;;;;19.03;44.95;99216.00;4858476;29;20156;-64
2021/12/20 07:20:06;;;;;;;93.68;45.90;;;;;;;18.87;44.66;99203.88;4865969;29;20069;-63
2021/12/20 07:22:56;;;;;;;97.95;48.10;;;;;;;18.75;45.25;99196.72;4862520;29;20438;-65
2021/12/20 07:25:44;;;;;;;98.43;46.70;;;;;;;18.68;45.92;99191.81;4857718;29;20049;-64
2021/12/20 07:28:33;;;;;;;87.32;46.03;;;;;;;18.68;45.71;99183.16;4863281;29;20068;-64
2021/12/20 07:31:19;;;;;;;91.28;43.70;;;;;;;18.76;45.52;99172.31;4865323;29;20385;-64
2021/12/20 07:34:10;;;;;;;98.35;45.40;;;;;;;18.88;45.29;99174.22;4864837;29;20060;-64
2021/12/20 07:36:53;;;;;;;106.28;49.35;;;;;;;18.86;45.53;99166.47;4865461;29;20053;-63
2021/12/20 07:39:41;;;;;;;101.60;49.72;;;;;;;18.98;47.99;99159.75;4866414;29;20108;-64
2021/12/20 07:42:23;;;;;;;91.13;47.35;;;;;;;18.90;45.99;99154.09;4863492;29;20053;-64
2021/12/20 07:45:12;;;;;;;99.35;47.35;;;;;;;19.12;46.20;99141.50;4864431;29;20045;-64
2021/12/20 07:47:59;;;;;;;91.05;47.58;;;;;;;18.91;46.57;99137.50;4861239;29;20073;-64
2021/12/20 07:50:48;;;;;;;103.10;48.28;;;;;;;18.86;45.28;99134.31;4860317;29;20081;-64
2021/12/20 07:53:30;;;;;;;116.40;50.35;;;;;;;18.85;46.66;99135.22;4858773;29;20577;-64
2021/12/20 07:56:19;;;;;;;105.22;51.08;;;;;;;18.91;49.05;99119.25;4869802;29;20503;-65
2021/12/20 07:59:01;;;;;;;92.18;50.97;;;;;;;18.96;46.84;99119.81;4866464;29;20553;-65
2021/12/20 08:01:56;;;;;;;98.03;51.15;;;;;;;18.90;43.76;99118.41;4867211;29;20053;-65
2021/12/20 08:04:32;;;;;;;103.05;53.70;;;;;;;18.87;46.85;99105.50;4866847;29;20060;-65
2021/12/20 08:07:21;;;;;;;99.10;52.20;;;;;;;18.89;45.64;99095.81;4863999;29;20049;-65
2021/12/20 08:10:03;;;;;;;94.60;50.38;;;;;;;18.83;45.13;99088.34;4863113;29;20057;-64
2021/12/20 08:13:00;;;;;;;91.43;43.95;;;;;;;18.72;44.27;99081.13;4874523;29;20490;-63
2021/12/20 08:15:35;;;;;;;92.90;44.13;;;;;;;18.77;44.03;99072.16;4855529;29;20049;-65
2021/12/20 08:18:24;;;;;;;90.88;46.47;;;;;;;18.71;45.65;99063.78;4855938;29;20113;-64
2021/12/20 08:21:06;;;;;;;82.65;41.22;;;;;;;18.45;42.54;99053.91;4861742;29;20064;-64
2021/12/20 08:23:55;;;;;;;88.38;40.83;;;;;;;18.56;42.89;99042.88;4856439;29;20136;-65
2021/12/20 08:26:37;;;;;;;75.68;39.20;;;;;;;18.56;43.05;99042.88;4851492;29;20444;-64
2021/12/20 08:29:26;;;;;;;84.07;42.60;;;;;;;18.68;45.95;99032.59;4861625;29;20053;-64
2021/12/20 08:32:09;;;;;;;79.75;43.55;;;;;;;18.57;45.50;99029.78;4835882;29;20589;-63
2021/12/20 08:35:04;;;;;;;88.82;41.90;;;;;;;18.56;47.68;99032.44;4860166;29;20049;-64
2021/12/20 08:37:40;;;;;;;85.22;41.17;;;;;;;18.61;46.61;99033.06;4852018;29;20144;-64
2021/12/20 08:40:36;;;;;;;85.85;43.25;;;;;;;18.63;45.40;99037.25;4846519;29;20070;-64
2021/12/20 08:43:24;;;;;;;90.50;45.40;;;;;;;18.55;45.08;99034.22;4848648;29;20057;-64
2021/12/20 08:46:15;;;;;;;104.85;44.97;;;;;;;18.63;45.54;99034.66;4862917;29;20057;-65
2021/12/20 08:48:58;;;;;;;92.18;44.05;;;;;;;18.73;47.24;99037.59;4854223;29;20053;-63
2021/12/20 08:51:46;;;;;;;81.68;45.30;;;;;;;18.74;46.84;99041.88;4853662;29;20552;-64
2021/12/20 08:54:29;;;;;;;83.63;43.10;;;;;;;18.62;45.70;99038.19;4854057;29;20437;-65
2021/12/20 08:57:17;;;;;;;84.75;45.13;;;;;;;18.60;45.41;99041.81;4855320;29;20053;-64
2021/12/20 09:00:01;;;;;;;86.80;43.42;;;;;;;18.62;46.61;99035.56;4854882;29;20045;-66
2021/12/20 09:02:50;;;;;;;88.60;40.97;;;;;;;18.55;43.83;99034.22;4858114;29;20053;-66
2021/12/20 09:05:34;;;;;;;80.47;37.85;;;;;;;18.64;47.94;99040.72;4870300;29;20838;-65
2021/12/20 09:08:22;;;;;;;76.05;34.58;;;;;;;18.59;47.21;99043.59;4853829;29;20072;-66
2021/12/20 09:11:04;;;;;;;76.43;33.38;;;;;;;18.38;49.00;99041.31;4854904;29;20085;-63
2021/12/20 09:13:53;;;;;;;87.80;35.33;;;;;;;18.32;46.26;99045.94;4867948;29;20053;-65
2021/12/20 09:16:42;;;;;;;73.15;32.72;;;;;;;18.30;48.54;99052.16;4843185;29;20053;-65
2021/12/20 09:19:34;;;;;;;59.13;30.52;;;;;;;18.28;52.14;99048.78;4836269;29;20091;-64
2021/12/20 09:22:16;;;;;;;61.08;29.95;;;;;;;18.18;44.36;99065.91;4850564;29;20057;-65
2021/12/20 09:25:05;;;;;;;64.75;29.98;;;;;;;18.13;45.72;99055.69;4857418;29;20063;-65
2021/12/20 09:27:47;;;;;;;71.18;30.63;;;;;;;18.11;48.12;99057.56;4857262;29;20049;-64
2021/12/20 09:30:37;;;;;;;70.05;31.48;;;;;;;18.07;46.98;99057.81;4858650;29;20088;-63
2021/12/20 09:33:20;;;;;;;;;;;;;;;18.03;46.31;99048.47;4866715;29;20045;-64
2021/12/20 09:36:10;;;;;;;66.97;30.65;;;;;;;18.03;50.76;99044.13;4862689;29;19935;-64
2021/12/20 09:38:58;;;;;;;63.15;32.47;;;;;;;17.99;45.39;99039.97;4863694;29;20054;-64
2021/12/20 09:44:33;;;;;;;89.25;34.22;;;;;;;18.02;51.01;99033.75;4842999;29;20057;-63
2021/12/20 09:47:23;;;;;;;72.80;32.53;;;;;;;18.01;44.60;99029.47;4835205;29;20048;-63
2021/12/20 09:50:12;;;;;;;65.82;31.17;;;;;;;18.06;46.78;99028.28;4849465;29;20109;-63
2021/12/20 09:53:07;;;;;;;71.18;31.70;;;;;;;17.93;50.75;99017.69;4846333;29;20603;-64
2021/12/20 09:55:55;;;;;;;70.97;30.73;;;;;;;17.98;51.05;99026.09;4847491;29;20070;-63
2021/12/20 09:58:50;;;;;;;67.82;30.83;;;;;;;17.91;48.22;99009.09;4846385;29;20065;-64
2021/12/20 10:01:40;;;;;;;66.20;30.95;;;;;;;17.90;47.25;99007.41;4841529;29;20046;-66
2021/12/20 10:04:26;;;;;;;73.60;32.05;;;;;;;17.84;44.55;98997.34;4842454;29;20157;-67
2021/12/20 10:07:23;;;;;;;66.85;31.67;;;;;;;17.90;48.02;99002.22;4847398;29;20519;-63
2021/12/20 10:10:07;;;;;;;66.93;31.98;;;;;;;17.88;47.91;98993.63;4835664;29;20491;-62
2021/12/20 10:12:57;;;;;;;69.00;32.15;;;;;;;17.83;48.85;98995.66;4832164;29;20053;-64
2021/12/20 10:15:41;;;;;;;71.93;32.70;;;;;;;17.75;47.27;98984.81;4822268;29;20163;-63
2021/12/20 10:18:32;;;;;;;73.05;32.67;;;;;;;17.77;49.16;98984.72;4829931;29;20057;-63
2021/12/20 10:21:17;;;;;;;74.47;32.30;;;;;;;17.65;46.91;98985.38;4833152;29;20041;-64
2021/12/20 10:24:07;;;;;;;73.47;31.13;;;;;;;17.65;45.98;98985.38;4837336;29;20058;-65
2021/12/20 10:26:51;;;;;;;65.18;32.45;;;;;;;17.65;46.84;98986.22;4843718;29;20057;-65
2021/12/20 10:29:46;;;;;;;76.68;33.75;;;;;;;17.56;48.83;98986.66;4843269;29;20095;-65
2021/12/20 10:32:45;;;;;;;76.43;32.97;;;;;;;17.60;50.57;98991.66;4844509;29;20149;-64
2021/12/20 10:35:56;;;;;;;64.45;31.17;;;;;;;17.46;49.12;98990.72;4849343;29;20158;-64
2021/12/20 10:38:56;;;;;;;78.43;33.35;;;;;;;17.46;48.95;98983.75;4843307;29;20057;-63
2021/12/20 10:41:49;;;;;;;77.93;34.40;;;;;;;17.24;49.23;98977.97;4857109;29;20708;-64
2021/12/20 10:44:40;;;;;;;77.63;32.58;;;;;;;17.16;48.86;98977.53;4868474;29;20053;-66
2021/12/20 10:47:33;;;;;;;72.85;35.17;;;;;;;17.16;52.43;98978.34;4876414;29;20133;-65
2021/12/20 10:50:30;;;;;;;81.97;37.00;;;;;;;17.15;56.98;98976.69;4868606;29;20586;-64
2021/12/20 10:53:31;;;;;;;73.15;35.10;;;;;;;16.98;52.29;98983.69;4861887;29;20057;-65
2021/12/20 10:56:27;;;;;;;74.78;34.72;;;;;;;17.03;54.06;98973.88;4868336;29;20128;-65
2021/12/20 10:59:11;;;;;;;79.82;34.65;;;;;;;17.00;56.99;98967.06;4867044;29;20056;-66
2021/12/20 11:04:59;;;;;;;89.63;34.88;;;;;;;16.85;57.87;98960.03;4870939;29;20498;-65
2021/12/20 11:11:12;;;;;;;92.03;34.88;;;;;;;16.54;62.42;98952.91;4864557;29;20665;-65
2021/12/20 11:14:10;;;;;;;81.80;34.90;;;;;;;16.43;64.97;98960.41;4867991;29;20061;-64
2021/12/20 11:16:50;;;;;;;89.30;34.83;;;;;;;16.24;63.16;98962.22;4869624;29;20088;-65
2021/12/20 11:19:41;;;;;;;89.63;38.28;;;;;;;16.07;67.90;98963.88;4865725;29;20045;-65
2021/12/20 11:22:35;;;;;;;75.05;34.83;;;;;;;16.07;72.49;98958.66;4861090;29;20068;-64
2021/12/20 11:25:24;;;;;;;77.38;33.75;;;;;;;15.92;71.92;98964.59;4860121;29;20057;-64
2021/12/20 11:28:07;;;;;;;75.30;36.35;;;;;;;15.82;72.44;98962.50;4859666;29;20053;-65
2021/12/20 11:30:58;;;;;;;83.60;36.05;;;;;;;15.68;73.42;98968.34;4857456;29;20669;-65
2021/12/20 11:33:42;;;;;;;84.63;36.53;;;;;;;15.58;78.63;98967.06;4860531;29;20052;-65
2021/12/20 11:36:33;;;;;;;84.63;36.78;;;;;;;15.46;79.14;98960.66;4856474;29;20053;-65
2021/12/20 11:39:22;;;;;;;98.90;37.15;;;;;;;15.30;79.57;98962.25;4858265;29;20137;-64
2021/12/20 11:42:20;;;;;;;87.68;37.40;;;;;;;15.27;82.04;98968.41;4854602;29;20061;-64
2021/12/20 11:45:12;;;;;;;94.57;38.53;;;;;;;15.21;83.03;98975.63;4860875;29;20048;-64
2021/12/20 11:48:16;;;;;;;95.57;39.35;;;;;;;15.18;82.88;98973.16;4857538;29;20724;-65
2021/12/20 11:51:07;;;;;;;94.60;39.78;;;;;;;15.16;82.68;98969.81;4856276;29;20053;-67
2021/12/20 11:53:51;;;;;;;87.28;39.60;;;;;;;15.21;82.87;98973.03;4856251;29;20129;-65
2021/12/20 11:56:47;;;;;;;91.28;40.72;;;;;;;15.26;83.62;98973.66;4859202;29;20121;-69
2021/12/20 11:59:52;;;;;;;97.18;41.78;;;;;;;15.16;86.33;98977.59;4850337;29;20160;-65
2021/12/20 12:02:45;;;;;;;98.13;41.35;;;;;;;15.19;86.51;98978.28;4859833;29;20045;-64
2021/12/20 12:05:37;;;;;;;97.33;43.63;;;;;;;15.12;87.44;98976.03;4862032;29;20052;-64
2021/12/20 12:08:39;;;;;;;111.40;42.85;;;;;;;15.06;90.24;98971.13;4855360;29;20281;-65
2021/12/20 12:11:21;;;;;;;112.13;43.60;;;;;;;15.02;89.08;98979.94;4863843;29;20061;-64
2021/12/20 12:14:34;;;;;;;105.05;44.35;;;;;;;14.92;90.27;98984.69;4856619;29;20057;-63
2021/12/20 12:17:23;;;;;;;117.38;45.72;;;;;;;14.97;90.02;98989.69;4859592;29;20049;-63
2021/12/20 12:20:06;;;;;;;110.30;46.13;;;;;;;14.82;90.92;99005.00;4879389;29;20049;-63
2021/12/20 12:22:54;;;;;;;119.82;48.20;;;;;;;14.84;92.70;99003.19;4856386;29;20397;-63
2021/12/20 12:25:46;;;;;;;117.60;48.40;;;;;;;14.73;90.83;99012.31;4861153;29;20065;-64
2021/12/20 12:29:01;;;;;;;112.15;48.72;;;;;;;14.67;91.44;99017.75;4855965;29;20762;-63
2021/12/20 12:32:02;;;;;;;120.18;49.72;;;;;;;14.53;96.38;99029.50;4858185;29;20080;-63
2021/12/20 12:34:53;;;;;;;132.15;49.55;;;;;;;14.52;95.09;99027.84;4841845;29;20793;-65
2021/12/20 12:37:37;;;;;;;118.95;47.92;;;;;;;14.37;93.80;99037.91;4861366;29;20060;-65
2021/12/20 12:40:34;;;;;;;126.55;50.38;;;;;;;14.24;95.13;99036.72;4860736;29;20068;-65
2021/12/20 12:43:16;;;;;;;116.70;50.53;;;;;;;14.13;95.62;99040.56;4861297;29;20057;-64
2021/12/20 12:46:04;;;;;;;114.93;50.58;;;;;;;14.02;95.68;99037.56;4863185;29;20041;-63
2021/12/20 12:48:47;;;;;;;119.70;50.65;;;;;;;13.99;95.78;99037.66;4862258;29;20061;-64
2021/12/20 12:51:36;;;;;;;125.88;52.05;;;;;;;14.02;98.44;99047.09;4857890;29;20053;-64
2021/12/20 12:54:44;;;;;;;137.93;56.70;;;;;;;13.90;99.82;99039.75;4858906;29;20164;-64
2021/12/20 12:57:33;;;;;;;132.77;56.08;;;;;;;13.90;99.03;99045.78;4862197;29;20053;-64
2021/12/20 13:00:27;;;;;;;143.18;60.03;;;;;;;14.09;97.54;99051.97;4860217;29;20061;-63
2021/12/20 13:03:22;;;;;;;132.50;56.10;;;;;;;13.88;98.81;99064.91;4860010;29;20081;-64